sensor_id;sensor_type;location;lat;lon;timestamp;P1;durP1;ratioP1;P2;durP2;ratioP2
36291;SDS011;22327;51.208;6.418;2023-08-21T00:02:10;7.22;;;2.70;;
36291;SDS011;22327;51.208;6.418;2023-08-21T00:05:11;4.88;;;2.45;;
36291;SDS011;22327;51.208;6.418;2023-08-21T00:08:11;5.57;;;2.42;;
36291;SDS011;22327;51.208;6.418;2023-08-21T00:11:12;6.43;;;2.60;;
36291;SDS011;22327;51.208;6.418;2023-08-21T00:14:13;5.80;;;2.60;;
36291;SDS011;22327;51.208;6.418;2023-08-21T00:17:13;4.63;;;2.35;;
36291;SDS011;22327;51.208;6.418;2023-08-21T00:20:14;7.07;;;2.33;;
36291;SDS011;22327;51.208;6.418;2023-08-21T00:23:14;3.42;;;2.08;;
36291;SDS011;22327;51.208;6.418;2023-08-21T00:26:15;8.23;;;2.15;;
36291;SDS011;22327;51.208;6.418;2023-08-21T00:29:15;3.97;;;1.85;;
36291;SDS011;22327;51.208;6.418;2023-08-21T00:32:16;2.58;;;1.52;;
36291;SDS011;22327;51.208;6.418;2023-08-21T00:35:16;5.05;;;2.17;;
36291;SDS011;22327;51.208;6.418;2023-08-21T00:38:17;4.07;;;1.70;;
36291;SDS011;22327;51.208;6.418;2023-08-21T00:41:18;8.00;;;2.25;;
36291;SDS011;22327;51.208;6.418;2023-08-21T00:44:18;3.83;;;1.90;;
36291;SDS011;22327;51.208;6.418;2023-08-21T00:47:19;4.80;;;2.33;;
36291;SDS011;22327;51.208;6.418;2023-08-21T00:50:20;3.65;;;1.67;;
36291;SDS011;22327;51.208;6.418;2023-08-21T00:53:20;3.80;;;1.80;;
36291;SDS011;22327;51.208;6.418;2023-08-21T00:56:21;5.60;;;1.95;;
36291;SDS011;22327;51.208;6.418;2023-08-21T00:59:22;5.30;;;2.08;;
36291;SDS011;22327;51.208;6.418;2023-08-21T01:02:22;4.57;;;2.30;;
36291;SDS011;22327;51.208;6.418;2023-08-21T01:05:23;5.97;;;2.47;;
36291;SDS011;22327;51.208;6.418;2023-08-21T01:08:30;5.82;;;1.92;;
36291;SDS011;22327;51.208;6.418;2023-08-21T01:15:15;6.95;;;2.25;;
36291;SDS011;22327;51.208;6.418;2023-08-21T01:18:17;3.75;;;1.92;;
36291;SDS011;22327;51.208;6.418;2023-08-21T01:21:19;6.45;;;2.25;;
36291;SDS011;22327;51.208;6.418;2023-08-21T01:24:20;5.75;;;1.95;;
36291;SDS011;22327;51.208;6.418;2023-08-21T01:27:20;6.40;;;2.40;;
36291;SDS011;22327;51.208;6.418;2023-08-21T01:30:21;4.80;;;1.83;;
36291;SDS011;22327;51.208;6.418;2023-08-21T01:33:22;5.80;;;2.90;;
36291;SDS011;22327;51.208;6.418;2023-08-21T01:36:23;2.88;;;2.13;;
36291;SDS011;22327;51.208;6.418;2023-08-21T01:39:25;6.75;;;1.95;;
36291;SDS011;22327;51.208;6.418;2023-08-21T01:42:26;4.22;;;2.10;;
36291;SDS011;22327;51.208;6.418;2023-08-21T01:45:27;3.53;;;1.83;;
36291;SDS011;22327;51.208;6.418;2023-08-21T01:48:27;4.15;;;1.77;;
36291;SDS011;22327;51.208;6.418;2023-08-21T01:51:28;4.15;;;1.80;;
36291;SDS011;22327;51.208;6.418;2023-08-21T01:54:28;3.83;;;2.10;;
36291;SDS011;22327;51.208;6.418;2023-08-21T01:57:29;7.05;;;1.70;;
36291;SDS011;22327;51.208;6.418;2023-08-21T02:00:29;2.90;;;1.70;;
36291;SDS011;22327;51.208;6.418;2023-08-21T02:03:30;3.25;;;2.03;;
36291;SDS011;22327;51.208;6.418;2023-08-21T02:06:30;4.68;;;2.38;;
36291;SDS011;22327;51.208;6.418;2023-08-21T02:09:31;5.38;;;2.30;;
36291;SDS011;22327;51.208;6.418;2023-08-21T02:12:31;10.10;;;2.38;;
36291;SDS011;22327;51.208;6.418;2023-08-21T02:15:32;4.03;;;2.25;;
36291;SDS011;22327;51.208;6.418;2023-08-21T02:18:32;5.72;;;2.22;;
36291;SDS011;22327;51.208;6.418;2023-08-21T02:21:33;5.00;;;1.80;;
36291;SDS011;22327;51.208;6.418;2023-08-21T02:24:34;4.70;;;1.95;;
36291;SDS011;22327;51.208;6.418;2023-08-21T02:27:35;5.63;;;2.03;;
36291;SDS011;22327;51.208;6.418;2023-08-21T02:30:35;4.07;;;1.98;;
36291;SDS011;22327;51.208;6.418;2023-08-21T02:33:39;5.25;;;1.70;;
36291;SDS011;22327;51.208;6.418;2023-08-21T02:36:40;4.55;;;2.42;;
36291;SDS011;22327;51.208;6.418;2023-08-21T02:39:40;6.13;;;1.92;;
36291;SDS011;22327;51.208;6.418;2023-08-21T02:42:41;6.95;;;2.58;;
36291;SDS011;22327;51.208;6.418;2023-08-21T02:45:41;4.97;;;2.03;;
36291;SDS011;22327;51.208;6.418;2023-08-21T02:48:42;4.38;;;1.70;;
36291;SDS011;22327;51.208;6.418;2023-08-21T02:51:43;7.28;;;1.90;;
36291;SDS011;22327;51.208;6.418;2023-08-21T02:54:43;4.57;;;1.98;;
36291;SDS011;22327;51.208;6.418;2023-08-21T02:57:44;4.60;;;2.20;;
36291;SDS011;22327;51.208;6.418;2023-08-21T03:00:44;5.20;;;1.70;;
36291;SDS011;22327;51.208;6.418;2023-08-21T03:03:45;4.97;;;2.40;;
36291;SDS011;22327;51.208;6.418;2023-08-21T03:06:45;4.85;;;2.13;;
36291;SDS011;22327;51.208;6.418;2023-08-21T03:09:46;4.20;;;1.65;;
36291;SDS011;22327;51.208;6.418;2023-08-21T03:12:47;6.22;;;2.30;;
36291;SDS011;22327;51.208;6.418;2023-08-21T03:15:48;4.30;;;1.80;;
36291;SDS011;22327;51.208;6.418;2023-08-21T03:18:55;2.80;;;1.67;;
36291;SDS011;22327;51.208;6.418;2023-08-21T03:21:55;5.63;;;1.70;;
36291;SDS011;22327;51.208;6.418;2023-08-21T03:24:56;4.88;;;1.70;;
36291;SDS011;22327;51.208;6.418;2023-08-21T03:27:56;3.40;;;1.90;;
36291;SDS011;22327;51.208;6.418;2023-08-21T03:30:57;4.22;;;1.88;;
36291;SDS011;22327;51.208;6.418;2023-08-21T03:33:58;4.57;;;1.90;;
36291;SDS011;22327;51.208;6.418;2023-08-21T03:36:58;2.97;;;1.98;;
36291;SDS011;22327;51.208;6.418;2023-08-21T03:39:59;5.35;;;1.65;;
36291;SDS011;22327;51.208;6.418;2023-08-21T03:42:59;4.78;;;1.60;;
36291;SDS011;22327;51.208;6.418;2023-08-21T03:46:00;4.68;;;1.83;;
36291;SDS011;22327;51.208;6.418;2023-08-21T03:49:00;4.70;;;1.80;;
36291;SDS011;22327;51.208;6.418;2023-08-21T03:52:01;4.85;;;2.20;;
36291;SDS011;22327;51.208;6.418;2023-08-21T03:55:01;4.28;;;2.17;;
36291;SDS011;22327;51.208;6.418;2023-08-21T03:58:02;6.68;;;1.85;;
36291;SDS011;22327;51.208;6.418;2023-08-21T04:01:02;4.53;;;1.70;;
36291;SDS011;22327;51.208;6.418;2023-08-21T04:04:03;4.50;;;1.98;;
36291;SDS011;22327;51.208;6.418;2023-08-21T04:07:04;5.60;;;1.85;;
36291;SDS011;22327;51.208;6.418;2023-08-21T04:10:04;3.28;;;1.92;;
36291;SDS011;22327;51.208;6.418;2023-08-21T04:13:05;7.40;;;2.40;;
36291;SDS011;22327;51.208;6.418;2023-08-21T04:16:06;6.13;;;2.25;;
36291;SDS011;22327;51.208;6.418;2023-08-21T04:19:06;3.95;;;2.10;;
36291;SDS011;22327;51.208;6.418;2023-08-21T04:22:07;3.72;;;1.60;;
36291;SDS011;22327;51.208;6.418;2023-08-21T04:25:07;6.43;;;2.20;;
36291;SDS011;22327;51.208;6.418;2023-08-21T04:28:08;4.93;;;1.95;;
36291;SDS011;22327;51.208;6.418;2023-08-21T04:31:09;7.63;;;1.48;;
36291;SDS011;22327;51.208;6.418;2023-08-21T04:34:09;6.57;;;2.28;;
36291;SDS011;22327;51.208;6.418;2023-08-21T04:37:10;3.28;;;2.10;;
36291;SDS011;22327;51.208;6.418;2023-08-21T04:40:10;5.22;;;1.83;;
36291;SDS011;22327;51.208;6.418;2023-08-21T04:43:11;4.90;;;1.70;;
36291;SDS011;22327;51.208;6.418;2023-08-21T04:46:12;6.85;;;2.20;;
36291;SDS011;22327;51.208;6.418;2023-08-21T04:49:12;4.70;;;1.67;;
36291;SDS011;22327;51.208;6.418;2023-08-21T04:52:13;6.38;;;2.00;;
36291;SDS011;22327;51.208;6.418;2023-08-21T04:55:13;3.80;;;1.90;;
36291;SDS011;22327;51.208;6.418;2023-08-21T04:58:14;2.17;;;1.40;;
36291;SDS011;22327;51.208;6.418;2023-08-21T05:01:14;5.53;;;2.17;;
36291;SDS011;22327;51.208;6.418;2023-08-21T05:04:15;8.52;;;2.20;;
36291;SDS011;22327;51.208;6.418;2023-08-21T05:07:16;4.85;;;1.60;;
36291;SDS011;22327;51.208;6.418;2023-08-21T05:10:16;4.43;;;2.22;;
36291;SDS011;22327;51.208;6.418;2023-08-21T05:13:17;5.60;;;1.95;;
36291;SDS011;22327;51.208;6.418;2023-08-21T05:16:17;5.10;;;1.92;;
36291;SDS011;22327;51.208;6.418;2023-08-21T05:19:18;3.88;;;1.90;;
36291;SDS011;22327;51.208;6.418;2023-08-21T05:22:18;4.60;;;1.83;;
36291;SDS011;22327;51.208;6.418;2023-08-21T05:25:19;3.30;;;1.50;;
36291;SDS011;22327;51.208;6.418;2023-08-21T05:28:19;4.85;;;2.00;;
36291;SDS011;22327;51.208;6.418;2023-08-21T05:31:20;6.22;;;2.05;;
36291;SDS011;22327;51.208;6.418;2023-08-21T05:34:20;6.80;;;1.70;;
36291;SDS011;22327;51.208;6.418;2023-08-21T05:37:21;4.22;;;1.92;;
36291;SDS011;22327;51.208;6.418;2023-08-21T05:40:22;4.72;;;1.55;;
36291;SDS011;22327;51.208;6.418;2023-08-21T05:43:22;8.73;;;1.92;;
36291;SDS011;22327;51.208;6.418;2023-08-21T05:46:23;4.60;;;1.80;;
36291;SDS011;22327;51.208;6.418;2023-08-21T05:49:23;6.88;;;1.60;;
36291;SDS011;22327;51.208;6.418;2023-08-21T05:52:24;5.38;;;1.80;;
36291;SDS011;22327;51.208;6.418;2023-08-21T05:55:24;5.05;;;1.67;;
36291;SDS011;22327;51.208;6.418;2023-08-21T05:58:25;3.25;;;1.30;;
36291;SDS011;22327;51.208;6.418;2023-08-21T06:01:30;3.38;;;1.30;;
36291;SDS011;22327;51.208;6.418;2023-08-21T06:04:30;6.97;;;2.65;;
36291;SDS011;22327;51.208;6.418;2023-08-21T06:07:32;7.32;;;2.20;;
36291;SDS011;22327;51.208;6.418;2023-08-21T06:10:32;3.70;;;1.20;;
36291;SDS011;22327;51.208;6.418;2023-08-21T06:13:33;4.75;;;1.50;;
36291;SDS011;22327;51.208;6.418;2023-08-21T06:16:33;3.90;;;1.58;;
36291;SDS011;22327;51.208;6.418;2023-08-21T06:19:34;2.42;;;1.20;;
36291;SDS011;22327;51.208;6.418;2023-08-21T06:22:35;2.28;;;1.30;;
36291;SDS011;22327;51.208;6.418;2023-08-21T06:25:36;3.05;;;1.33;;
36291;SDS011;22327;51.208;6.418;2023-08-21T06:28:36;7.40;;;1.77;;
36291;SDS011;22327;51.208;6.418;2023-08-21T06:31:37;3.85;;;1.60;;
36291;SDS011;22327;51.208;6.418;2023-08-21T06:34:37;3.72;;;1.30;;
36291;SDS011;22327;51.208;6.418;2023-08-21T06:37:38;4.38;;;1.40;;
36291;SDS011;22327;51.208;6.418;2023-08-21T06:40:38;4.88;;;1.33;;
36291;SDS011;22327;51.208;6.418;2023-08-21T06:43:39;3.80;;;1.42;;
36291;SDS011;22327;51.208;6.418;2023-08-21T06:46:40;4.80;;;1.23;;
36291;SDS011;22327;51.208;6.418;2023-08-21T06:49:40;6.22;;;1.65;;
36291;SDS011;22327;51.208;6.418;2023-08-21T06:52:41;5.97;;;1.63;;
36291;SDS011;22327;51.208;6.418;2023-08-21T06:55:41;4.18;;;1.60;;
36291;SDS011;22327;51.208;6.418;2023-08-21T06:58:45;3.83;;;1.63;;
36291;SDS011;22327;51.208;6.418;2023-08-21T07:01:46;4.10;;;1.77;;
36291;SDS011;22327;51.208;6.418;2023-08-21T07:04:46;3.35;;;1.48;;
36291;SDS011;22327;51.208;6.418;2023-08-21T07:07:47;4.65;;;1.30;;
36291;SDS011;22327;51.208;6.418;2023-08-21T07:10:47;3.08;;;1.55;;
36291;SDS011;22327;51.208;6.418;2023-08-21T07:13:48;3.10;;;1.27;;
36291;SDS011;22327;51.208;6.418;2023-08-21T07:16:49;6.32;;;2.28;;
36291;SDS011;22327;51.208;6.418;2023-08-21T07:19:49;2.28;;;1.27;;
36291;SDS011;22327;51.208;6.418;2023-08-21T07:22:52;4.35;;;1.90;;
36291;SDS011;22327;51.208;6.418;2023-08-21T07:25:53;5.32;;;1.67;;
36291;SDS011;22327;51.208;6.418;2023-08-21T07:28:53;6.20;;;1.65;;
36291;SDS011;22327;51.208;6.418;2023-08-21T07:31:54;4.90;;;1.70;;
36291;SDS011;22327;51.208;6.418;2023-08-21T07:34:55;5.75;;;1.23;;
36291;SDS011;22327;51.208;6.418;2023-08-21T07:37:55;4.63;;;1.77;;
36291;SDS011;22327;51.208;6.418;2023-08-21T07:41:03;3.58;;;1.52;;
36291;SDS011;22327;51.208;6.418;2023-08-21T07:44:05;5.15;;;1.63;;
36291;SDS011;22327;51.208;6.418;2023-08-21T07:47:05;4.75;;;1.90;;
36291;SDS011;22327;51.208;6.418;2023-08-21T07:50:06;3.45;;;1.60;;
36291;SDS011;22327;51.208;6.418;2023-08-21T07:53:07;5.95;;;1.65;;
36291;SDS011;22327;51.208;6.418;2023-08-21T07:56:08;5.03;;;1.73;;
36291;SDS011;22327;51.208;6.418;2023-08-21T07:59:08;4.90;;;1.63;;
36291;SDS011;22327;51.208;6.418;2023-08-21T08:02:09;3.65;;;1.75;;
36291;SDS011;22327;51.208;6.418;2023-08-21T08:05:11;4.05;;;1.95;;
36291;SDS011;22327;51.208;6.418;2023-08-21T08:08:12;4.82;;;1.77;;
36291;SDS011;22327;51.208;6.418;2023-08-21T08:11:12;5.68;;;2.00;;
36291;SDS011;22327;51.208;6.418;2023-08-21T08:14:13;4.85;;;1.83;;
36291;SDS011;22327;51.208;6.418;2023-08-21T08:17:13;5.00;;;1.90;;
36291;SDS011;22327;51.208;6.418;2023-08-21T08:20:14;4.47;;;1.40;;
36291;SDS011;22327;51.208;6.418;2023-08-21T08:23:14;6.05;;;2.00;;
36291;SDS011;22327;51.208;6.418;2023-08-21T08:26:15;3.60;;;1.40;;
36291;SDS011;22327;51.208;6.418;2023-08-21T08:29:16;8.43;;;2.28;;
36291;SDS011;22327;51.208;6.418;2023-08-21T08:32:17;4.75;;;2.10;;
36291;SDS011;22327;51.208;6.418;2023-08-21T08:35:17;2.63;;;1.67;;
36291;SDS011;22327;51.208;6.418;2023-08-21T08:38:18;8.13;;;2.35;;
36291;SDS011;22327;51.208;6.418;2023-08-21T08:41:24;7.18;;;1.90;;
36291;SDS011;22327;51.208;6.418;2023-08-21T08:44:30;5.22;;;1.90;;
36291;SDS011;22327;51.208;6.418;2023-08-21T08:47:31;6.18;;;2.25;;
36291;SDS011;22327;51.208;6.418;2023-08-21T08:50:36;5.65;;;1.67;;
36291;SDS011;22327;51.208;6.418;2023-08-21T08:53:39;5.35;;;1.95;;
36291;SDS011;22327;51.208;6.418;2023-08-21T08:56:40;4.70;;;1.65;;
36291;SDS011;22327;51.208;6.418;2023-08-21T08:59:40;4.47;;;1.77;;
36291;SDS011;22327;51.208;6.418;2023-08-21T09:02:41;5.63;;;2.17;;
36291;SDS011;22327;51.208;6.418;2023-08-21T09:05:41;5.82;;;1.80;;
36291;SDS011;22327;51.208;6.418;2023-08-21T09:08:52;5.63;;;1.85;;
36291;SDS011;22327;51.208;6.418;2023-08-21T09:11:54;8.18;;;2.55;;
36291;SDS011;22327;51.208;6.418;2023-08-21T09:14:54;4.80;;;1.55;;
36291;SDS011;22327;51.208;6.418;2023-08-21T09:17:56;3.97;;;1.75;;
36291;SDS011;22327;51.208;6.418;2023-08-21T09:20:56;7.35;;;2.13;;
36291;SDS011;22327;51.208;6.418;2023-08-21T09:23:58;3.80;;;1.70;;
36291;SDS011;22327;51.208;6.418;2023-08-21T09:27:00;6.25;;;1.92;;
36291;SDS011;22327;51.208;6.418;2023-08-21T09:30:11;4.22;;;1.83;;
36291;SDS011;22327;51.208;6.418;2023-08-21T09:33:19;3.20;;;1.60;;
36291;SDS011;22327;51.208;6.418;2023-08-21T09:36:21;5.93;;;2.22;;
36291;SDS011;22327;51.208;6.418;2023-08-21T09:39:21;6.63;;;2.40;;
36291;SDS011;22327;51.208;6.418;2023-08-21T09:42:22;6.85;;;2.20;;
36291;SDS011;22327;51.208;6.418;2023-08-21T09:45:24;6.18;;;2.50;;
36291;SDS011;22327;51.208;6.418;2023-08-21T09:48:25;5.47;;;2.45;;
36291;SDS011;22327;51.208;6.418;2023-08-21T09:51:32;6.88;;;2.03;;
36291;SDS011;22327;51.208;6.418;2023-08-21T09:54:33;8.63;;;2.28;;
36291;SDS011;22327;51.208;6.418;2023-08-21T09:57:34;6.40;;;2.20;;
36291;SDS011;22327;51.208;6.418;2023-08-21T10:00:36;8.52;;;2.40;;
36291;SDS011;22327;51.208;6.418;2023-08-21T10:03:38;5.43;;;2.03;;
36291;SDS011;22327;51.208;6.418;2023-08-21T10:06:40;5.20;;;1.93;;
36291;SDS011;22327;51.208;6.418;2023-08-21T10:09:40;3.40;;;1.48;;
36291;SDS011;22327;51.208;6.418;2023-08-21T10:12:42;4.00;;;1.98;;
36291;SDS011;22327;51.208;6.418;2023-08-21T10:15:42;5.85;;;2.03;;
36291;SDS011;22327;51.208;6.418;2023-08-21T10:18:44;4.03;;;1.75;;
36291;SDS011;22327;51.208;6.418;2023-08-21T10:21:46;2.88;;;1.65;;
36291;SDS011;22327;51.208;6.418;2023-08-21T10:24:48;6.93;;;2.20;;
36291;SDS011;22327;51.208;6.418;2023-08-21T10:27:50;8.68;;;2.35;;
36291;SDS011;22327;51.208;6.418;2023-08-21T10:30:53;3.15;;;1.80;;
36291;SDS011;22327;51.208;6.418;2023-08-21T10:33:53;4.57;;;1.83;;
36291;SDS011;22327;51.208;6.418;2023-08-21T10:37:10;3.15;;;1.63;;
36291;SDS011;22327;51.208;6.418;2023-08-21T10:40:21;4.95;;;1.45;;
36291;SDS011;22327;51.208;6.418;2023-08-21T10:43:36;5.80;;;2.13;;
36291;SDS011;22327;51.208;6.418;2023-08-21T10:46:50;3.28;;;1.35;;
36291;SDS011;22327;51.208;6.418;2023-08-21T10:49:52;4.85;;;1.42;;
36291;SDS011;22327;51.208;6.418;2023-08-21T10:52:54;4.70;;;1.20;;
36291;SDS011;22327;51.208;6.418;2023-08-21T10:55:55;2.85;;;1.00;;
36291;SDS011;22327;51.208;6.418;2023-08-21T10:58:56;3.55;;;1.17;;
36291;SDS011;22327;51.208;6.418;2023-08-21T11:01:56;3.33;;;1.20;;
36291;SDS011;22327;51.208;6.418;2023-08-21T11:04:57;2.08;;;0.93;;
36291;SDS011;22327;51.208;6.418;2023-08-21T11:07:59;4.05;;;1.10;;
36291;SDS011;22327;51.208;6.418;2023-08-21T11:11:03;4.50;;;1.27;;
36291;SDS011;22327;51.208;6.418;2023-08-21T11:14:04;3.17;;;1.10;;
36291;SDS011;22327;51.208;6.418;2023-08-21T11:17:05;2.45;;;1.10;;
36291;SDS011;22327;51.208;6.418;2023-08-21T11:20:07;1.75;;;0.75;;
36291;SDS011;22327;51.208;6.418;2023-08-21T11:23:08;2.05;;;1.10;;
36291;SDS011;22327;51.208;6.418;2023-08-21T11:26:12;2.38;;;1.35;;
36291;SDS011;22327;51.208;6.418;2023-08-21T11:29:12;2.95;;;1.17;;
36291;SDS011;22327;51.208;6.418;2023-08-21T11:35:14;3.08;;;1.10;;
36291;SDS011;22327;51.208;6.418;2023-08-21T11:38:16;4.32;;;1.00;;
36291;SDS011;22327;51.208;6.418;2023-08-21T11:41:18;5.25;;;0.95;;
36291;SDS011;22327;51.208;6.418;2023-08-21T11:44:19;1.90;;;0.70;;
36291;SDS011;22327;51.208;6.418;2023-08-21T11:47:21;3.67;;;0.95;;
36291;SDS011;22327;51.208;6.418;2023-08-21T11:50:22;2.38;;;1.13;;
36291;SDS011;22327;51.208;6.418;2023-08-21T11:53:32;2.22;;;0.70;;
36291;SDS011;22327;51.208;6.418;2023-08-21T11:56:34;2.53;;;1.10;;
36291;SDS011;22327;51.208;6.418;2023-08-21T11:59:36;4.15;;;1.40;;
36291;SDS011;22327;51.208;6.418;2023-08-21T12:02:37;3.58;;;1.10;;
36291;SDS011;22327;51.208;6.418;2023-08-21T12:05:42;2.92;;;1.02;;
36291;SDS011;22327;51.208;6.418;2023-08-21T12:08:44;2.38;;;0.90;;
36291;SDS011;22327;51.208;6.418;2023-08-21T12:11:45;4.20;;;1.25;;
36291;SDS011;22327;51.208;6.418;2023-08-21T12:14:45;2.85;;;1.10;;
36291;SDS011;22327;51.208;6.418;2023-08-21T12:17:46;3.15;;;0.90;;
36291;SDS011;22327;51.208;6.418;2023-08-21T12:20:47;4.88;;;1.40;;
36291;SDS011;22327;51.208;6.418;2023-08-21T12:23:47;3.55;;;1.27;;
36291;SDS011;22327;51.208;6.418;2023-08-21T12:26:48;3.22;;;1.40;;
36291;SDS011;22327;51.208;6.418;2023-08-21T12:29:48;3.30;;;1.10;;
36291;SDS011;22327;51.208;6.418;2023-08-21T12:32:49;3.88;;;1.25;;
36291;SDS011;22327;51.208;6.418;2023-08-21T12:35:49;3.00;;;1.20;;
36291;SDS011;22327;51.208;6.418;2023-08-21T12:38:50;3.65;;;1.60;;
36291;SDS011;22327;51.208;6.418;2023-08-21T12:41:50;4.07;;;1.25;;
36291;SDS011;22327;51.208;6.418;2023-08-21T12:44:51;2.97;;;1.05;;
36291;SDS011;22327;51.208;6.418;2023-08-21T12:47:51;3.58;;;1.50;;
36291;SDS011;22327;51.208;6.418;2023-08-21T12:50:52;2.97;;;1.20;;
36291;SDS011;22327;51.208;6.418;2023-08-21T12:53:52;3.40;;;1.25;;
36291;SDS011;22327;51.208;6.418;2023-08-21T12:56:53;3.38;;;1.55;;
36291;SDS011;22327;51.208;6.418;2023-08-21T12:59:53;3.03;;;1.42;;
36291;SDS011;22327;51.208;6.418;2023-08-21T13:02:54;5.68;;;1.58;;
36291;SDS011;22327;51.208;6.418;2023-08-21T13:05:55;4.40;;;1.33;;
36291;SDS011;22327;51.208;6.418;2023-08-21T13:08:55;2.72;;;1.38;;
36291;SDS011;22327;51.208;6.418;2023-08-21T13:11:55;2.40;;;1.35;;
36291;SDS011;22327;51.208;6.418;2023-08-21T13:14:56;3.55;;;1.38;;
36291;SDS011;22327;51.208;6.418;2023-08-21T13:17:58;1.48;;;1.10;;
36291;SDS011;22327;51.208;6.418;2023-08-21T13:20:59;3.50;;;1.50;;
36291;SDS011;22327;51.208;6.418;2023-08-21T13:23:59;4.68;;;1.38;;
36291;SDS011;22327;51.208;6.418;2023-08-21T13:27:00;3.63;;;1.35;;
36291;SDS011;22327;51.208;6.418;2023-08-21T13:30:00;2.13;;;1.23;;
36291;SDS011;22327;51.208;6.418;2023-08-21T13:33:01;4.25;;;1.55;;
36291;SDS011;22327;51.208;6.418;2023-08-21T13:36:03;2.15;;;0.90;;
36291;SDS011;22327;51.208;6.418;2023-08-21T13:39:04;2.33;;;1.23;;
36291;SDS011;22327;51.208;6.418;2023-08-21T13:42:06;4.10;;;1.20;;
36291;SDS011;22327;51.208;6.418;2023-08-21T13:45:07;2.58;;;1.10;;
36291;SDS011;22327;51.208;6.418;2023-08-21T13:48:11;2.47;;;1.02;;
36291;SDS011;22327;51.208;6.418;2023-08-21T13:51:11;3.13;;;1.20;;
36291;SDS011;22327;51.208;6.418;2023-08-21T13:54:12;2.20;;;1.02;;
36291;SDS011;22327;51.208;6.418;2023-08-21T13:57:12;1.70;;;1.05;;
36291;SDS011;22327;51.208;6.418;2023-08-21T14:00:13;1.75;;;1.17;;
36291;SDS011;22327;51.208;6.418;2023-08-21T14:03:13;4.90;;;1.20;;
36291;SDS011;22327;51.208;6.418;2023-08-21T14:06:14;2.97;;;1.00;;
36291;SDS011;22327;51.208;6.418;2023-08-21T14:09:14;2.00;;;1.17;;
36291;SDS011;22327;51.208;6.418;2023-08-21T14:12:15;3.92;;;1.27;;
36291;SDS011;22327;51.208;6.418;2023-08-21T14:15:16;3.10;;;1.00;;
36291;SDS011;22327;51.208;6.418;2023-08-21T14:18:18;3.50;;;1.13;;
36291;SDS011;22327;51.208;6.418;2023-08-21T14:21:18;3.28;;;1.08;;
36291;SDS011;22327;51.208;6.418;2023-08-21T14:24:19;4.20;;;1.38;;
36291;SDS011;22327;51.208;6.418;2023-08-21T14:27:19;3.22;;;1.20;;
36291;SDS011;22327;51.208;6.418;2023-08-21T14:30:20;5.65;;;1.50;;
36291;SDS011;22327;51.208;6.418;2023-08-21T14:33:21;4.40;;;1.65;;
36291;SDS011;22327;51.208;6.418;2023-08-21T14:36:21;8.52;;;1.23;;
36291;SDS011;22327;51.208;6.418;2023-08-21T14:39:22;2.25;;;1.10;;
36291;SDS011;22327;51.208;6.418;2023-08-21T14:42:23;2.72;;;1.00;;
36291;SDS011;22327;51.208;6.418;2023-08-21T14:45:24;2.50;;;1.20;;
36291;SDS011;22327;51.208;6.418;2023-08-21T14:48:25;4.05;;;1.10;;
36291;SDS011;22327;51.208;6.418;2023-08-21T14:51:25;1.45;;;1.00;;
36291;SDS011;22327;51.208;6.418;2023-08-21T14:54:26;4.30;;;1.17;;
36291;SDS011;22327;51.208;6.418;2023-08-21T14:57:26;3.35;;;1.20;;
36291;SDS011;22327;51.208;6.418;2023-08-21T15:00:27;3.15;;;1.20;;
36291;SDS011;22327;51.208;6.418;2023-08-21T15:03:27;1.83;;;0.98;;
36291;SDS011;22327;51.208;6.418;2023-08-21T15:06:28;2.78;;;1.30;;
36291;SDS011;22327;51.208;6.418;2023-08-21T15:09:28;3.13;;;1.17;;
36291;SDS011;22327;51.208;6.418;2023-08-21T15:12:29;3.22;;;1.33;;
36291;SDS011;22327;51.208;6.418;2023-08-21T15:15:29;3.38;;;1.25;;
36291;SDS011;22327;51.208;6.418;2023-08-21T15:18:30;3.22;;;1.02;;
36291;SDS011;22327;51.208;6.418;2023-08-21T15:21:31;1.92;;;1.30;;
36291;SDS011;22327;51.208;6.418;2023-08-21T15:24:31;3.90;;;1.30;;
36291;SDS011;22327;51.208;6.418;2023-08-21T15:27:32;1.70;;;1.00;;
36291;SDS011;22327;51.208;6.418;2023-08-21T15:30:32;2.92;;;1.10;;
36291;SDS011;22327;51.208;6.418;2023-08-21T15:33:33;5.75;;;1.42;;
36291;SDS011;22327;51.208;6.418;2023-08-21T15:36:33;4.38;;;1.45;;
36291;SDS011;22327;51.208;6.418;2023-08-21T15:39:34;2.45;;;1.23;;
36291;SDS011;22327;51.208;6.418;2023-08-21T15:42:34;2.95;;;1.30;;
36291;SDS011;22327;51.208;6.418;2023-08-21T15:45:35;2.53;;;1.13;;
36291;SDS011;22327;51.208;6.418;2023-08-21T15:48:35;4.75;;;1.20;;
36291;SDS011;22327;51.208;6.418;2023-08-21T15:51:36;3.25;;;1.30;;
36291;SDS011;22327;51.208;6.418;2023-08-21T15:54:36;4.03;;;1.20;;
36291;SDS011;22327;51.208;6.418;2023-08-21T15:57:37;4.95;;;1.52;;
36291;SDS011;22327;51.208;6.418;2023-08-21T16:00:37;2.95;;;1.30;;
36291;SDS011;22327;51.208;6.418;2023-08-21T16:03:38;3.67;;;1.65;;
36291;SDS011;22327;51.208;6.418;2023-08-21T16:06:39;1.92;;;1.23;;
36291;SDS011;22327;51.208;6.418;2023-08-21T16:09:39;5.93;;;1.50;;
36291;SDS011;22327;51.208;6.418;2023-08-21T16:12:41;3.30;;;1.10;;
36291;SDS011;22327;51.208;6.418;2023-08-21T16:15:41;2.75;;;1.27;;
36291;SDS011;22327;51.208;6.418;2023-08-21T16:18:42;3.13;;;1.02;;
36291;SDS011;22327;51.208;6.418;2023-08-21T16:21:42;1.95;;;1.33;;
36291;SDS011;22327;51.208;6.418;2023-08-21T16:24:43;4.13;;;1.30;;
36291;SDS011;22327;51.208;6.418;2023-08-21T16:27:43;2.47;;;1.50;;
36291;SDS011;22327;51.208;6.418;2023-08-21T16:30:44;2.30;;;1.23;;
36291;SDS011;22327;51.208;6.418;2023-08-21T16:33:44;3.80;;;1.48;;
36291;SDS011;22327;51.208;6.418;2023-08-21T16:36:45;3.35;;;1.20;;
36291;SDS011;22327;51.208;6.418;2023-08-21T16:39:45;2.42;;;1.25;;
36291;SDS011;22327;51.208;6.418;2023-08-21T16:42:46;3.60;;;1.70;;
36291;SDS011;22327;51.208;6.418;2023-08-21T16:45:46;2.38;;;1.10;;
36291;SDS011;22327;51.208;6.418;2023-08-21T16:48:47;4.78;;;1.30;;
36291;SDS011;22327;51.208;6.418;2023-08-21T16:51:47;3.58;;;1.13;;
36291;SDS011;22327;51.208;6.418;2023-08-21T16:54:48;2.90;;;1.23;;
36291;SDS011;22327;51.208;6.418;2023-08-21T16:57:48;2.67;;;0.90;;
36291;SDS011;22327;51.208;6.418;2023-08-21T17:00:49;3.95;;;1.40;;
36291;SDS011;22327;51.208;6.418;2023-08-21T17:03:53;3.97;;;1.40;;
36291;SDS011;22327;51.208;6.418;2023-08-21T17:06:53;3.60;;;1.30;;
36291;SDS011;22327;51.208;6.418;2023-08-21T17:09:54;2.97;;;1.13;;
36291;SDS011;22327;51.208;6.418;2023-08-21T17:12:54;3.30;;;1.20;;
36291;SDS011;22327;51.208;6.418;2023-08-21T17:15:55;3.60;;;1.10;;
36291;SDS011;22327;51.208;6.418;2023-08-21T17:18:55;2.85;;;1.20;;
36291;SDS011;22327;51.208;6.418;2023-08-21T17:21:56;3.38;;;1.17;;
36291;SDS011;22327;51.208;6.418;2023-08-21T17:24:57;2.55;;;1.52;;
36291;SDS011;22327;51.208;6.418;2023-08-21T17:27:59;1.88;;;1.17;;
36291;SDS011;22327;51.208;6.418;2023-08-21T17:31:00;3.17;;;1.27;;
36291;SDS011;22327;51.208;6.418;2023-08-21T17:34:01;3.67;;;1.95;;
36291;SDS011;22327;51.208;6.418;2023-08-21T17:37:01;4.35;;;1.48;;
36291;SDS011;22327;51.208;6.418;2023-08-21T17:40:02;4.60;;;1.40;;
36291;SDS011;22327;51.208;6.418;2023-08-21T17:43:06;4.10;;;1.55;;
36291;SDS011;22327;51.208;6.418;2023-08-21T17:46:06;3.80;;;1.65;;
36291;SDS011;22327;51.208;6.418;2023-08-21T17:49:07;2.63;;;1.60;;
36291;SDS011;22327;51.208;6.418;2023-08-21T17:52:08;2.20;;;1.30;;
36291;SDS011;22327;51.208;6.418;2023-08-21T17:55:08;3.17;;;1.40;;
36291;SDS011;22327;51.208;6.418;2023-08-21T17:58:09;6.53;;;1.80;;
36291;SDS011;22327;51.208;6.418;2023-08-21T18:01:09;4.93;;;2.00;;
36291;SDS011;22327;51.208;6.418;2023-08-21T18:04:10;4.53;;;2.08;;
36291;SDS011;22327;51.208;6.418;2023-08-21T18:07:10;4.38;;;2.00;;
36291;SDS011;22327;51.208;6.418;2023-08-21T18:10:11;4.38;;;1.52;;
36291;SDS011;22327;51.208;6.418;2023-08-21T18:13:11;3.03;;;1.40;;
36291;SDS011;22327;51.208;6.418;2023-08-21T18:16:12;2.20;;;1.35;;
36291;SDS011;22327;51.208;6.418;2023-08-21T18:19:12;5.07;;;1.67;;